Pagina principale
METAR-TAF:

METAR-TAF

Aeroporti :

Parco nazionale Kruger, Sudafrica

latitudine: 25-23-00S, longitudine: 31-06-20E, altezza: 862 m

Osservazione

Il bollettino è stato emesso 51 minuti fa, alle 03:00 UTC
Vento 4 kt da sud-ovest
Temperature 19°C
Umidità 78%
Pressione 1014 hPa
Visibilità 10 km o più
nessuna nube inferiore a 1500 m e nessun cumulonembo

METAR: FAKN 070300Z 23004KT CAVOK 19/15 Q1014 NOSIG

Ora: 05:51 (03:51 UTC)

Previsione

Il bollettino è stato emesso 51 minuti fa, alle 03:00 UTC
Previsione valida dal 07 alle 04 UTC al 07 alle 15 UTC
Vento 3 kt da direzioni variabili
Visibilità 10 km o più
nessuna nube inferiore a 1500 m e nessun cumulonembo

TAF: FAKN 070300Z 0704/0715 VRB03KT CAVOK TX25/0712Z TN18/0704Z

Osservazioni e previsioni meteorologiche di più di 4000 aeroporti (messaggi METAR e TAF).

Le stazioni disponibili sono rappresentate dai dischi gialli e rossi sulla carta.

Puntare il mouse per vedere il nome della stazione.

Clicca sopra per visualizzare le osservazioni e previsioni meteorologiche.

Per cambiare la mappa : fare clic sui pulsanti verdi con una croce nera per ingrandire, il pulsante verde con un trattino per diminuire, o sulla freccia verde per le mappe adiacenti.


METAR-TAF: